Time;durP1;ratioP1;P1;durP2;ratioP2;P2;SDS_P1;SDS_P2;PMS_P1;PMS_P2;Temp;Humidity;BMP_temperature;BMP_pressure;BME280_temperature;BME280_humidity;BME280_pressure;Samples;Min_cycle;Max_cycle;Signal;HPM_P1;HPM_P2
2022/01/08 00:00:16;;;;;;;0.80;0.80;;;-3.20;99.90;;;;;;5060755;28;20200;-81
2022/01/08 00:02:43;;;;;;;0.70;0.70;;;-3.20;99.90;;;;;;5076725;28;20233;-81
2022/01/08 00:05:10;;;;;;;0.77;0.77;;;-3.10;99.90;;;;;;5072236;28;20680;-80
2022/01/08 00:07:36;;;;;;;0.80;0.80;;;-3.20;99.90;;;;;;5070839;28;20201;-77
2022/01/08 00:10:05;;;;;;;0.70;0.70;;;-3.20;99.90;;;;;;5054362;28;20201;-80
2022/01/08 00:12:31;;;;;;;1.00;1.00;;;-3.20;99.90;;;;;;5072611;28;20192;-80
2022/01/08 00:15:04;;;;;;;0.80;0.80;;;-3.20;99.90;;;;;;5074983;28;20311;-80
2022/01/08 00:17:30;;;;;;;0.80;0.80;;;-3.20;99.90;;;;;;5074880;28;20201;-80
2022/01/08 00:19:58;;;;;;;0.70;0.70;;;-3.20;99.90;;;;;;5075328;28;20741;-81
2022/01/08 00:22:24;;;;;;;0.90;0.90;;;-3.20;99.90;;;;;;5060826;28;20206;-80
2022/01/08 00:24:52;;;;;;;0.80;0.80;;;-3.20;99.90;;;;;;5071036;28;20197;-77
2022/01/08 00:27:22;;;;;;;0.80;0.80;;;-3.20;99.90;;;;;;5073906;28;20282;-79
2022/01/08 00:29:48;;;;;;;0.60;0.60;;;-3.10;99.90;;;;;;5059807;28;20229;-77
2022/01/08 00:32:14;;;;;;;0.60;0.60;;;-3.10;99.90;;;;;;5054951;28;20216;-76
2022/01/08 00:34:41;;;;;;;1.70;1.60;;;-3.10;99.90;;;;;;5067849;28;20205;-78
2022/01/08 00:37:07;;;;;;;0.80;0.80;;;-3.10;99.90;;;;;;5062833;28;20273;-77
2022/01/08 00:39:33;;;;;;;0.80;0.80;;;-3.10;99.90;;;;;;5055025;28;20220;-77
2022/01/08 00:41:59;;;;;;;0.80;0.80;;;-3.00;99.90;;;;;;5064277;28;20197;-77
2022/01/08 00:44:25;;;;;;;0.70;0.70;;;-3.10;99.90;;;;;;5065194;28;20239;-78
2022/01/08 00:46:52;;;;;;;0.80;0.80;;;-3.00;99.90;;;;;;5054703;28;20613;-76
2022/01/08 00:49:17;;;;;;;0.80;0.80;;;-3.00;99.90;;;;;;5055642;28;20232;-78
2022/01/08 00:51:43;;;;;;;1.10;1.10;;;-3.00;99.90;;;;;;5060381;28;20197;-78
2022/01/08 00:54:09;;;;;;;0.50;0.50;;;-3.00;99.90;;;;;;5068500;28;20201;-77
2022/01/08 00:56:34;;;;;;;0.75;0.75;;;-3.00;99.90;;;;;;5056746;28;20228;-78
2022/01/08 00:59:03;;;;;;;0.80;0.80;;;-3.00;99.90;;;;;;5070563;28;20668;-78
2022/01/08 01:01:28;;;;;;;0.82;0.82;;;-3.00;99.90;;;;;;5070010;28;20676;-78
2022/01/08 01:03:54;;;;;;;0.70;0.70;;;-3.00;99.90;;;;;;5056518;28;20203;-79
2022/01/08 01:06:20;;;;;;;0.90;0.90;;;-3.00;99.90;;;;;;5053971;28;20570;-79
2022/01/08 01:08:45;;;;;;;0.75;0.75;;;-3.00;99.90;;;;;;5073525;28;20201;-79
2022/01/08 01:11:11;;;;;;;0.70;0.70;;;-3.00;99.90;;;;;;5074009;28;20205;-82
2022/01/08 01:13:37;;;;;;;0.90;0.90;;;-3.00;99.90;;;;;;5072134;28;20687;-76
2022/01/08 01:16:03;;;;;;;0.70;0.70;;;-3.00;99.90;;;;;;5071133;28;20568;-78
2022/01/08 01:18:29;;;;;;;0.70;0.70;;;-3.00;99.90;;;;;;5069260;28;20205;-78
2022/01/08 01:20:54;;;;;;;0.70;0.70;;;-3.00;99.90;;;;;;5058195;28;20213;-81
2022/01/08 01:23:28;;;;;;;0.70;0.70;;;-3.00;99.90;;;;;;5057214;28;20201;-80
2022/01/08 01:25:59;;;;;;;0.63;0.63;;;-3.00;99.90;;;;;;5056380;28;20262;-75
2022/01/08 01:47:01;;;;;;;0.70;0.70;;;-2.90;99.90;;;;;;5068171;28;20212;-78
2022/01/08 01:49:28;;;;;;;0.60;0.60;;;-3.00;99.90;;;;;;5069287;28;20204;-75
2022/01/08 01:51:55;;;;;;;0.80;0.80;;;-3.00;99.90;;;;;;5056507;28;20606;-77
2022/01/08 01:54:20;;;;;;;0.70;0.70;;;-2.90;99.90;;;;;;5054099;28;20229;-79
2022/01/08 01:56:46;;;;;;;0.60;0.60;;;-2.90;99.90;;;;;;5066203;28;20248;-77
2022/01/08 01:59:13;;;;;;;1.40;1.05;;;-2.90;99.90;;;;;;5071357;28;20208;-77
2022/01/08 02:01:39;;;;;;;0.80;0.80;;;-2.90;99.90;;;;;;5065637;28;20205;-88
2022/01/08 02:04:05;;;;;;;0.75;0.75;;;-2.90;99.90;;;;;;5065195;28;20236;-87
2022/01/08 02:06:31;;;;;;;0.70;0.70;;;-2.90;99.90;;;;;;5063903;28;20242;-86
2022/01/08 02:08:57;;;;;;;0.80;0.80;;;-2.90;99.90;;;;;;5074364;28;20675;-86
2022/01/08 02:11:22;;;;;;;0.70;0.70;;;-2.90;99.90;;;;;;5066966;28;20212;-85
2022/01/08 02:13:48;;;;;;;0.80;0.80;;;-2.90;99.90;;;;;;5063962;28;20624;-88
2022/01/08 02:16:17;;;;;;;0.73;0.73;;;-2.90;99.90;;;;;;5072748;28;20196;-87
2022/01/08 02:18:47;;;;;;;0.80;0.80;;;-2.90;99.90;;;;;;5071045;28;20219;-86
2022/01/08 02:21:14;;;;;;;1.80;1.65;;;-2.90;99.90;;;;;;5057806;28;20232;-86
2022/01/08 02:23:41;;;;;;;0.68;0.68;;;-2.80;99.90;;;;;;5069986;28;20284;-85
2022/01/08 02:26:10;;;;;;;0.85;0.85;;;-2.80;99.90;;;;;;5057111;28;20732;-86
2022/01/08 02:28:37;;;;;;;1.02;1.02;;;-2.90;99.90;;;;;;5056059;28;20751;-88
2022/01/08 02:31:04;;;;;;;0.80;0.80;;;-2.90;99.90;;;;;;5073209;28;20200;-89
2022/01/08 02:33:30;;;;;;;0.75;0.75;;;-2.90;99.90;;;;;;5060007;28;20205;-88
2022/01/08 02:35:56;;;;;;;0.70;0.70;;;-2.90;99.90;;;;;;5062758;28;20573;-85
2022/01/08 02:38:23;;;;;;;0.70;0.70;;;-2.90;99.90;;;;;;5063269;28;20213;-86
2022/01/08 02:40:54;;;;;;;0.90;0.90;;;-2.80;99.90;;;;;;5061108;28;20214;-87
2022/01/08 02:43:20;;;;;;;0.90;0.90;;;-2.90;99.90;;;;;;5060476;28;20206;-87
2022/01/08 02:45:46;;;;;;;0.80;0.80;;;-2.90;99.90;;;;;;5061969;28;20198;-88
2022/01/08 02:48:12;;;;;;;0.80;0.80;;;-2.90;99.90;;;;;;5059988;28;20202;-88
2022/01/08 02:50:37;;;;;;;0.60;0.60;;;-2.90;99.90;;;;;;5074115;28;20197;-87
2022/01/08 02:53:03;;;;;;;0.80;0.80;;;-2.80;99.90;;;;;;5069542;28;20205;-87
2022/01/08 02:55:29;;;;;;;0.70;0.70;;;-2.80;99.90;;;;;;5067894;28;20206;-85
2022/01/08 02:57:55;;;;;;;0.80;0.80;;;-2.80;99.90;;;;;;5065283;28;20222;-87
2022/01/08 03:00:21;;;;;;;0.80;0.80;;;-2.80;99.90;;;;;;5069834;28;20719;-87
2022/01/08 03:02:50;;;;;;;0.70;0.70;;;-2.70;99.90;;;;;;5076615;28;20193;-85
2022/01/08 03:05:17;;;;;;;0.80;0.80;;;-2.80;99.90;;;;;;5078066;28;20197;-87
2022/01/08 03:07:44;;;;;;;0.80;0.80;;;-2.70;99.90;;;;;;5073400;28;20618;-87
2022/01/08 03:10:12;;;;;;;0.82;0.82;;;-2.70;99.90;;;;;;5062849;28;20773;-87
2022/01/08 03:12:41;;;;;;;0.88;0.88;;;-2.70;99.90;;;;;;5061336;28;20206;-88
2022/01/08 03:15:10;;;;;;;0.80;0.80;;;-2.70;99.90;;;;;;5061659;28;20230;-87
2022/01/08 03:17:36;;;;;;;2.13;1.92;;;-2.70;99.90;;;;;;5063669;28;20197;-87
2022/01/08 03:20:06;;;;;;;0.70;0.70;;;-2.70;99.90;;;;;;5077247;28;20205;-87
2022/01/08 03:22:32;;;;;;;0.60;0.60;;;-2.70;99.90;;;;;;5076473;28;20674;-88
2022/01/08 03:24:59;;;;;;;0.70;0.70;;;-2.70;99.90;;;;;;5075593;28;20201;-87
2022/01/08 03:27:25;;;;;;;0.75;0.75;;;-2.70;99.90;;;;;;5074999;28;20359;-86
2022/01/08 03:29:51;;;;;;;0.60;0.60;;;-2.60;99.90;;;;;;5060747;28;20273;-84
2022/01/08 03:32:16;;;;;;;0.63;0.63;;;-2.60;99.90;;;;;;5079327;28;20254;-87
2022/01/08 03:34:42;;;;;;;0.73;0.73;;;-2.60;99.90;;;;;;5077525;28;20284;-86
2022/01/08 03:37:08;;;;;;;0.70;0.70;;;-2.60;99.90;;;;;;5076832;28;20269;-88
2022/01/08 03:39:33;;;;;;;0.73;0.73;;;-2.60;99.90;;;;;;5075343;28;20200;-88
2022/01/08 03:41:59;;;;;;;0.80;0.80;;;-2.60;99.90;;;;;;5076427;28;20201;-87
2022/01/08 03:44:26;;;;;;;0.70;0.70;;;-2.60;99.90;;;;;;5075176;28;20229;-86
2022/01/08 03:46:52;;;;;;;0.80;0.80;;;-2.60;99.90;;;;;;5076315;28;20295;-87
2022/01/08 03:49:25;;;;;;;0.85;0.85;;;-2.60;99.90;;;;;;5075272;28;20299;-86
2022/01/08 03:51:55;;;;;;;0.70;0.70;;;-2.60;99.90;;;;;;5066111;28;20205;-87
2022/01/08 03:54:22;;;;;;;0.70;0.70;;;-2.60;99.90;;;;;;5067455;28;20204;-85
2022/01/08 03:56:49;;;;;;;0.63;0.63;;;-2.60;99.90;;;;;;5072637;28;20283;-88
2022/01/08 03:59:15;;;;;;;1.30;1.02;;;-2.60;99.90;;;;;;5075490;28;20215;-88
2022/01/08 04:01:41;;;;;;;0.80;0.80;;;-2.60;99.90;;;;;;5075769;28;20260;-87
2022/01/08 04:04:07;;;;;;;0.75;0.75;;;-2.60;99.90;;;;;;5077139;28;20285;-87
2022/01/08 04:06:33;;;;;;;0.70;0.70;;;-2.60;99.90;;;;;;5071679;28;20285;-87
2022/01/08 04:08:58;;;;;;;1.33;1.10;;;-2.60;99.90;;;;;;5059778;28;20198;-84
2022/01/08 04:11:26;;;;;;;0.77;0.77;;;-2.60;99.90;;;;;;5063745;28;20208;-86
2022/01/08 04:13:53;;;;;;;0.80;0.80;;;-2.60;99.90;;;;;;5076108;28;20738;-86
2022/01/08 04:16:24;;;;;;;0.70;0.70;;;-2.60;99.90;;;;;;5077776;28;20192;-88
2022/01/08 04:18:49;;;;;;;0.73;0.73;;;-2.60;99.90;;;;;;5062154;28;20225;-89
2022/01/08 04:24:05;;;;;;;0.70;0.70;;;-2.60;99.90;;;;;;5062181;28;20204;-88
2022/01/08 04:26:31;;;;;;;0.70;0.70;;;-2.50;99.90;;;;;;5063489;28;20227;-86
2022/01/08 04:28:56;;;;;;;0.70;0.70;;;-2.50;99.90;;;;;;5063073;28;20732;-86
2022/01/08 04:31:23;;;;;;;0.80;0.80;;;-2.50;99.90;;;;;;5078002;28;20224;-86
2022/01/08 04:33:49;;;;;;;0.70;0.70;;;-2.50;99.90;;;;;;5076343;28;20196;-86
2022/01/08 04:36:16;;;;;;;1.00;1.00;;;-2.50;99.90;;;;;;5077730;28;20197;-87
2022/01/08 04:38:42;;;;;;;0.70;0.70;;;-2.50;99.90;;;;;;5076965;28;20640;-88
2022/01/08 04:41:08;;;;;;;0.70;0.70;;;-2.50;99.90;;;;;;5061692;28;20223;-89
2022/01/08 04:43:37;;;;;;;0.80;0.80;;;-2.50;99.90;;;;;;5073750;28;20279;-87
2022/01/08 04:46:04;;;;;;;0.73;0.73;;;-2.50;99.90;;;;;;5077459;28;20200;-87
2022/01/08 04:48:29;;;;;;;0.90;0.90;;;-2.50;99.90;;;;;;5076633;28;20256;-85
2022/01/08 04:50:55;;;;;;;0.80;0.80;;;-2.50;99.90;;;;;;5065690;28;20205;-86
2022/01/08 04:53:21;;;;;;;0.80;0.80;;;-2.50;99.90;;;;;;5067806;28;20201;-87
2022/01/08 04:55:46;;;;;;;0.80;0.80;;;-2.50;99.90;;;;;;5066110;28;20352;-86
2022/01/08 04:58:12;;;;;;;0.90;0.90;;;-2.50;99.90;;;;;;5062198;28;20243;-88
2022/01/08 05:00:39;;;;;;;0.70;0.70;;;-2.40;99.90;;;;;;5065225;28;20248;-86
2022/01/08 05:03:05;;;;;;;0.70;0.70;;;-2.40;99.90;;;;;;5078899;28;20197;-86
2022/01/08 05:05:31;;;;;;;0.65;0.65;;;-2.40;99.90;;;;;;5075260;28;20196;-88
2022/01/08 05:07:57;;;;;;;0.70;0.70;;;-2.40;99.90;;;;;;5074664;28;20644;-85
2022/01/08 05:10:22;;;;;;;2.47;1.90;;;-2.40;99.90;;;;;;5074334;28;20207;-85
2022/01/08 05:12:48;;;;;;;0.68;0.68;;;-2.40;99.90;;;;;;5073675;28;20204;-87
2022/01/08 05:15:15;;;;;;;0.90;0.90;;;-2.40;99.90;;;;;;5060003;28;20220;-88
2022/01/08 05:17:43;;;;;;;0.75;0.75;;;-2.40;99.90;;;;;;5058500;28;20193;-89
2022/01/08 05:20:11;;;;;;;0.77;0.77;;;-2.40;99.90;;;;;;5077793;28;20295;-86
2022/01/08 05:25:21;;;;;;;0.90;0.90;;;-2.40;99.90;;;;;;5077638;28;20284;-89
2022/01/08 05:27:48;;;;;;;0.80;0.80;;;-2.40;99.90;;;;;;5074461;28;20201;-88
2022/01/08 05:30:16;;;;;;;0.70;0.70;;;-2.30;99.90;;;;;;5075469;28;20552;-86
2022/01/08 05:32:42;;;;;;;0.60;0.60;;;-2.30;99.90;;;;;;5074638;28;20321;-88
2022/01/08 05:35:09;;;;;;;0.80;0.80;;;-2.30;99.90;;;;;;5075507;28;20312;-87
2022/01/08 05:37:35;;;;;;;2.40;1.85;;;-2.30;99.90;;;;;;5059693;28;20212;-84
2022/01/08 05:40:01;;;;;;;0.70;0.70;;;-2.30;99.90;;;;;;5073209;28;20296;-83
2022/01/08 05:42:26;;;;;;;0.60;0.60;;;-2.30;99.90;;;;;;5075975;28;20220;-83
2022/01/08 05:44:52;;;;;;;0.70;0.70;;;-2.30;99.90;;;;;;5075513;28;20204;-85
2022/01/08 05:47:21;;;;;;;0.70;0.70;;;-2.30;99.90;;;;;;5075198;28;20287;-84
2022/01/08 05:49:46;;;;;;;0.75;0.75;;;-2.30;99.90;;;;;;5076572;28;20232;-84
2022/01/08 05:52:12;;;;;;;0.80;0.80;;;-2.30;99.90;;;;;;5068982;28;20201;-84
2022/01/08 05:54:38;;;;;;;0.70;0.70;;;-2.30;99.90;;;;;;5065453;28;21415;-83
2022/01/08 05:57:04;;;;;;;0.80;0.80;;;-2.30;99.90;;;;;;5074426;28;20587;-83
2022/01/08 05:59:33;;;;;;;1.00;1.00;;;-2.30;99.90;;;;;;5077517;28;20297;-85
2022/01/08 06:01:58;;;;;;;0.70;0.70;;;-2.30;99.90;;;;;;5073249;28;20204;-83
2022/01/08 06:04:24;;;;;;;1.00;1.00;;;-2.20;99.90;;;;;;5060026;28;20194;-83
2022/01/08 06:06:50;;;;;;;0.98;0.98;;;-2.30;99.90;;;;;;5059534;28;20196;-85
2022/01/08 06:09:16;;;;;;;0.68;0.68;;;-2.20;99.90;;;;;;5060892;28;20208;-84
2022/01/08 06:11:42;;;;;;;0.60;0.60;;;-2.30;99.90;;;;;;5077549;28;20197;-84
2022/01/08 06:14:08;;;;;;;0.70;0.70;;;-2.20;99.90;;;;;;5076655;28;20228;-84
2022/01/08 06:16:36;;;;;;;0.80;0.80;;;-2.20;99.90;;;;;;5058516;28;20213;-86
2022/01/08 06:19:10;;;;;;;0.80;0.80;;;-2.20;99.90;;;;;;5058323;28;20208;-84
2022/01/08 06:21:36;;;;;;;0.80;0.80;;;-2.20;99.90;;;;;;5075801;28;20208;-85
2022/01/08 06:24:02;;;;;;;0.73;0.73;;;-2.20;99.90;;;;;;5061332;28;20193;-84
2022/01/08 06:26:28;;;;;;;0.70;0.70;;;-2.20;99.90;;;;;;5058631;28;20197;-85
2022/01/08 06:28:54;;;;;;;0.80;0.80;;;-2.20;99.90;;;;;;5059011;28;20207;-83
2022/01/08 06:31:20;;;;;;;0.80;0.80;;;-2.20;99.90;;;;;;5073534;28;20208;-84
2022/01/08 06:33:46;;;;;;;0.70;0.70;;;-2.20;99.90;;;;;;5075103;28;20209;-85
2022/01/08 06:36:13;;;;;;;0.63;0.63;;;-2.10;99.90;;;;;;5065619;28;20316;-84
2022/01/08 06:38:40;;;;;;;0.70;0.70;;;-2.20;99.90;;;;;;5065711;28;20212;-84
2022/01/08 06:41:05;;;;;;;0.70;0.70;;;-2.20;99.90;;;;;;5074111;28;20220;-86
2022/01/08 06:43:31;;;;;;;0.75;0.75;;;-2.20;99.90;;;;;;5067711;28;20205;-86
2022/01/08 06:45:57;;;;;;;0.80;0.80;;;-2.10;99.90;;;;;;5058215;28;20201;-87
2022/01/08 06:48:23;;;;;;;0.60;0.60;;;-2.20;99.90;;;;;;5064466;28;20205;-84
2022/01/08 06:50:48;;;;;;;0.70;0.70;;;-2.10;99.90;;;;;;5074909;28;20747;-85
2022/01/08 06:53:14;;;;;;;0.68;0.68;;;-2.10;99.90;;;;;;5070451;28;20244;-85
2022/01/08 06:55:40;;;;;;;0.80;0.80;;;-2.10;99.90;;;;;;5061469;28;20694;-84
2022/01/08 06:58:05;;;;;;;0.80;0.80;;;-2.10;99.90;;;;;;5073791;28;20621;-86
2022/01/08 07:00:31;;;;;;;0.70;0.70;;;-2.10;99.90;;;;;;5058130;28;20589;-83
2022/01/08 07:02:56;;;;;;;0.70;0.70;;;-2.10;99.90;;;;;;5075661;28;20214;-81
2022/01/08 07:05:24;;;;;;;0.88;0.88;;;-2.10;99.90;;;;;;5075352;28;20270;-85
2022/01/08 07:07:53;;;;;;;2.45;2.13;;;-2.00;99.90;;;;;;5075328;28;20208;-84
2022/01/08 07:10:21;;;;;;;0.80;0.80;;;-2.10;99.90;;;;;;5076694;28;20201;-84
2022/01/08 07:12:47;;;;;;;0.70;0.70;;;-2.10;99.90;;;;;;5056861;28;20202;-86
2022/01/08 07:15:12;;;;;;;1.67;1.40;;;-2.00;99.90;;;;;;5059805;28;20213;-87
2022/01/08 07:17:39;;;;;;;0.70;0.70;;;-2.00;99.90;;;;;;5075439;28;20668;-87
2022/01/08 07:20:08;;;;;;;0.75;0.75;;;-2.00;99.90;;;;;;5078462;28;20292;-86
2022/01/08 07:22:34;;;;;;;0.68;0.68;;;-2.00;99.90;;;;;;5080599;28;20287;-85
2022/01/08 07:25:00;;;;;;;0.80;0.80;;;-2.00;99.90;;;;;;5066954;28;20206;-84
2022/01/08 07:27:28;;;;;;;0.70;0.70;;;-2.00;99.90;;;;;;5062121;28;20193;-83
2022/01/08 07:29:54;;;;;;;1.60;1.50;;;-2.00;99.90;;;;;;5072983;28;20284;-85
2022/01/08 07:32:20;;;;;;;0.90;0.90;;;-2.00;99.90;;;;;;5078133;28;20201;-84
2022/01/08 07:34:46;;;;;;;0.77;0.77;;;-2.00;99.90;;;;;;5078376;28;20250;-85
2022/01/08 07:37:12;;;;;;;0.77;0.77;;;-2.00;99.90;;;;;;5071665;28;20206;-87
2022/01/08 07:39:37;;;;;;;0.80;0.80;;;-2.00;99.90;;;;;;5065069;28;20845;-88
2022/01/08 07:42:03;;;;;;;0.70;0.70;;;-1.90;99.90;;;;;;5073298;28;20355;-86
2022/01/08 07:44:29;;;;;;;0.90;0.90;;;-1.90;99.90;;;;;;5073919;28;20228;-85
2022/01/08 07:46:56;;;;;;;0.80;0.80;;;-2.00;99.90;;;;;;5067962;28;20230;-86
2022/01/08 07:49:22;;;;;;;0.80;0.80;;;-2.00;99.90;;;;;;5079734;28;20200;-84
2022/01/08 07:51:49;;;;;;;0.60;0.60;;;-2.00;99.90;;;;;;5074790;28;20212;-85
2022/01/08 07:54:17;;;;;;;0.70;0.70;;;-1.90;99.90;;;;;;5063047;28;20778;-85
2022/01/08 07:56:42;;;;;;;0.73;0.73;;;-1.90;99.90;;;;;;5062480;28;20779;-84
2022/01/08 07:59:08;;;;;;;1.80;1.70;;;-1.90;99.90;;;;;;5063278;28;20274;-84
2022/01/08 08:01:33;;;;;;;2.35;1.92;;;-1.90;99.90;;;;;;5076994;28;20201;-84
2022/01/08 08:03:59;;;;;;;3.53;1.90;;;-1.90;99.90;;;;;;5061392;28;20253;-85
2022/01/08 08:06:25;;;;;;;0.75;0.75;;;-1.90;99.90;;;;;;5060423;28;20205;-86
2022/01/08 08:08:50;;;;;;;3.38;1.88;;;-1.90;99.90;;;;;;5079823;28;20260;-85
2022/01/08 08:11:16;;;;;;;2.83;1.70;;;-1.80;99.90;;;;;;5078565;28;20255;-85
2022/01/08 08:13:42;;;;;;;1.98;1.77;;;-1.80;99.90;;;;;;5078069;28;20211;-84
2022/01/08 08:16:08;;;;;;;0.75;0.75;;;-1.80;99.90;;;;;;5064771;28;20197;-85
2022/01/08 08:18:33;;;;;;;0.70;0.70;;;-1.80;99.90;;;;;;5061364;28;20209;-84
2022/01/08 08:20:59;;;;;;;1.58;1.48;;;-1.80;99.90;;;;;;5075111;28;20228;-85
2022/01/08 08:23:25;;;;;;;1.23;1.13;;;-1.80;99.90;;;;;;5076894;28;20197;-85
2022/01/08 08:25:50;;;;;;;0.68;0.68;;;-1.80;99.90;;;;;;5069965;28;20208;-86
2022/01/08 08:28:16;;;;;;;1.85;1.42;;;-1.80;99.90;;;;;;5061267;28;20410;-87
2022/01/08 08:30:42;;;;;;;0.73;0.73;;;-1.70;99.90;;;;;;5067571;28;20247;-86
2022/01/08 08:33:08;;;;;;;2.17;1.73;;;-1.80;99.90;;;;;;5078784;28;20207;-84
2022/01/08 08:35:34;;;;;;;1.55;1.45;;;-1.80;99.90;;;;;;5078697;28;20686;-86
2022/01/08 08:38:00;;;;;;;2.08;1.95;;;-1.80;99.90;;;;;;5072206;28;20221;-85
2022/01/08 08:40:26;;;;;;;1.83;1.73;;;-1.70;99.90;;;;;;5065021;28;20239;-87
2022/01/08 08:42:51;;;;;;;1.80;1.70;;;-1.70;99.90;;;;;;5077477;28;20254;-86
2022/01/08 08:45:17;;;;;;;2.25;1.98;;;-1.70;99.90;;;;;;5077989;28;20387;-85
2022/01/08 08:47:43;;;;;;;3.95;2.88;;;-1.60;99.90;;;;;;5076596;28;20243;-85
2022/01/08 08:50:12;;;;;;;2.47;2.28;;;-1.60;99.90;;;;;;5077021;28;20736;-85
2022/01/08 08:52:38;;;;;;;0.73;0.73;;;-1.60;99.90;;;;;;5094023;28;20201;-83
2022/01/08 08:55:05;;;;;;;0.68;0.68;;;-1.60;99.90;;;;;;5078172;28;20245;-83
2022/01/08 08:57:30;;;;;;;1.33;1.23;;;-1.60;99.90;;;;;;5070163;28;20213;-83
2022/01/08 08:59:56;;;;;;;0.82;0.82;;;-1.60;99.90;;;;;;5062262;28;20219;-83
2022/01/08 09:02:22;;;;;;;0.68;0.68;;;-1.60;99.90;;;;;;5062535;28;20201;-83
2022/01/08 09:04:49;;;;;;;0.68;0.68;;;-1.50;99.90;;;;;;5076733;28;20663;-84
2022/01/08 09:07:15;;;;;;;0.60;0.60;;;-1.50;99.90;;;;;;5076684;28;20205;-82
2022/01/08 09:09:41;;;;;;;0.70;0.70;;;-1.50;99.90;;;;;;5063355;28;20270;-81
2022/01/08 09:12:07;;;;;;;0.80;0.80;;;-1.50;99.90;;;;;;5060087;28;20213;-81
2022/01/08 09:14:33;;;;;;;0.60;0.60;;;-1.50;99.90;;;;;;5069943;28;20215;-82
2022/01/08 09:17:03;;;;;;;0.70;0.70;;;-1.40;99.90;;;;;;5069843;28;20209;-83
2022/01/08 09:19:29;;;;;;;0.90;0.90;;;-1.40;99.90;;;;;;5058766;28;20209;-80
2022/01/08 09:21:55;;;;;;;1.50;1.25;;;-1.40;99.90;;;;;;5059188;28;20259;-81
2022/01/08 09:24:21;;;;;;;0.60;0.60;;;-1.40;99.90;;;;;;5060359;28;20285;-81
2022/01/08 09:26:48;;;;;;;0.80;0.80;;;-1.40;99.90;;;;;;5059399;28;20225;-81
2022/01/08 09:29:15;;;;;;;1.55;1.30;;;-1.40;99.90;;;;;;5077504;28;20613;-82
2022/01/08 09:31:41;;;;;;;0.80;0.80;;;-1.40;99.90;;;;;;5070221;28;20648;-84
2022/01/08 09:34:11;;;;;;;1.10;1.10;;;-1.30;99.90;;;;;;5059698;28;20212;-86
2022/01/08 09:36:47;;;;;;;1.45;1.35;;;-1.30;99.90;;;;;;5070859;28;20244;-82
2022/01/08 09:39:13;;;;;;;1.10;1.10;;;-1.30;99.90;;;;;;5090723;28;20208;-80
2022/01/08 09:42:08;;;;;;;1.55;1.45;;;-1.30;99.90;;;;;;5064260;28;20235;-82
2022/01/08 09:44:37;;;;;;;0.63;0.63;;;-1.30;99.90;;;;;;5076163;28;20228;-83
2022/01/08 09:47:04;;;;;;;0.93;0.93;;;-1.30;99.90;;;;;;5057915;28;20216;-80
2022/01/08 09:49:30;;;;;;;0.70;0.70;;;-1.30;99.90;;;;;;5071920;28;20201;-80
2022/01/08 09:52:00;;;;;;;0.80;0.80;;;-1.30;99.90;;;;;;5072320;28;20219;-82
2022/01/08 09:54:27;;;;;;;1.25;1.20;;;-1.30;99.90;;;;;;5056836;28;20210;-82
2022/01/08 09:56:53;;;;;;;0.70;0.70;;;-1.30;99.90;;;;;;5075789;28;20216;-83
2022/01/08 09:59:20;;;;;;;0.70;0.70;;;-1.20;99.90;;;;;;5071825;28;20218;-83
2022/01/08 10:01:53;;;;;;;0.70;0.70;;;-1.20;99.90;;;;;;5062964;28;20201;-83
2022/01/08 10:04:27;;;;;;;0.73;0.73;;;-1.20;99.90;;;;;;5073957;28;20201;-82
2022/01/08 10:07:20;;;;;;;1.15;1.10;;;-1.20;99.90;;;;;;5074569;28;20212;-82
2022/01/08 10:13:22;;;;;;;0.73;0.73;;;-1.20;99.90;;;;;;5058279;28;20292;-80
2022/01/08 10:18:36;;;;;;;0.93;0.93;;;-1.20;99.90;;;;;;5064900;28;20279;-81
2022/01/08 10:21:23;;;;;;;0.70;0.70;;;-1.30;99.90;;;;;;5073421;28;20207;-80
2022/01/08 10:24:08;;;;;;;0.70;0.70;;;-1.20;99.90;;;;;;5072666;28;20226;-81
2022/01/08 10:26:41;;;;;;;0.70;0.70;;;-1.20;99.90;;;;;;5063682;28;20272;-79
2022/01/08 10:29:15;;;;;;;0.70;0.70;;;-1.20;99.90;;;;;;5058286;28;20259;-81
2022/01/08 10:31:42;;;;;;;0.90;0.90;;;-1.20;99.90;;;;;;5066008;28;20204;-80
2022/01/08 10:34:18;;;;;;;0.60;0.60;;;-1.20;99.90;;;;;;5075146;28;20637;-82
2022/01/08 10:36:55;;;;;;;0.80;0.80;;;-1.20;99.90;;;;;;5074845;28;20203;-83
2022/01/08 10:39:21;;;;;;;0.85;0.85;;;-1.20;99.90;;;;;;5066733;28;20676;-83
2022/01/08 10:41:51;;;;;;;0.82;0.82;;;-1.20;99.90;;;;;;5066828;28;20238;-83
2022/01/08 10:44:31;;;;;;;0.60;0.60;;;-1.20;99.90;;;;;;5077221;28;20706;-84
2022/01/08 10:46:57;;;;;;;0.90;0.90;;;-1.20;99.90;;;;;;5075598;28;20192;-84
2022/01/08 10:49:42;;;;;;;1.05;1.05;;;-1.20;99.90;;;;;;5066853;28;20278;-83
2022/01/08 10:52:16;;;;;;;1.10;1.02;;;-1.20;99.90;;;;;;5069699;28;20219;-82
2022/01/08 10:54:57;;;;;;;0.82;0.82;;;-1.10;99.90;;;;;;5064830;28;20657;-78
2022/01/08 10:57:38;;;;;;;1.48;1.38;;;-1.10;99.90;;;;;;5067531;28;20694;-79
2022/01/08 11:00:07;;;;;;;1.02;1.02;;;-1.00;99.90;;;;;;5073474;28;20234;-77
2022/01/08 11:02:33;;;;;;;1.02;1.00;;;-1.00;99.90;;;;;;5056894;28;20205;-78
2022/01/08 11:05:04;;;;;;;1.02;1.02;;;-1.00;99.90;;;;;;5064777;28;20198;-78
2022/01/08 11:07:31;;;;;;;1.05;1.05;;;-1.00;99.90;;;;;;5055337;28;20225;-79
2022/01/08 11:10:07;;;;;;;0.68;0.68;;;-1.00;99.90;;;;;;5056752;28;20682;-77
2022/01/08 11:12:41;;;;;;;2.28;2.08;;;-1.00;99.90;;;;;;5056687;28;20620;-77
2022/01/08 11:18:00;;;;;;;0.90;0.90;;;-1.00;99.90;;;;;;5074379;28;20295;-78
2022/01/08 11:20:34;;;;;;;1.20;1.17;;;-0.90;99.90;;;;;;5072699;28;20524;-77
2022/01/08 11:23:02;;;;;;;1.25;1.15;;;-0.90;99.90;;;;;;5074558;28;20211;-79
2022/01/08 11:25:38;;;;;;;1.92;1.63;;;-0.90;99.90;;;;;;5066041;28;20206;-79
2022/01/08 11:28:15;;;;;;;0.95;0.95;;;-0.90;99.90;;;;;;5057895;28;20200;-80
2022/01/08 11:30:43;;;;;;;0.52;0.52;;;-0.80;99.90;;;;;;5057779;28;20209;-79
2022/01/08 11:33:21;;;;;;;0.60;0.60;;;-0.80;99.90;;;;;;5055094;28;20712;-80
2022/01/08 11:35:49;;;;;;;3.60;1.02;;;-0.80;99.90;;;;;;5056319;28;20288;-79
2022/01/08 11:38:19;;;;;;;0.93;0.93;;;-0.80;99.90;;;;;;5064214;28;20312;-79
2022/01/08 11:40:46;;;;;;;2.58;2.08;;;-0.70;99.90;;;;;;5065357;28;20570;-79
2022/01/08 11:43:15;;;;;;;1.00;1.00;;;-0.70;99.90;;;;;;5062778;28;20730;-80
2022/01/08 11:45:59;;;;;;;1.20;1.10;;;-0.70;99.90;;;;;;5072589;28;20197;-79
2022/01/08 11:48:30;;;;;;;1.02;1.02;;;-0.70;99.90;;;;;;5072306;28;20196;-80
2022/01/08 11:50:58;;;;;;;0.93;0.93;;;-0.70;99.90;;;;;;5072636;28;20197;-80
2022/01/08 11:53:24;;;;;;;0.80;0.80;;;-0.70;99.90;;;;;;5070946;28;20250;-80
2022/01/08 11:55:59;;;;;;;1.80;1.70;;;-0.70;99.90;;;;;;5070888;28;20201;-80
2022/01/08 11:58:35;;;;;;;1.05;1.05;;;-0.70;99.90;;;;;;5073648;28;20235;-79
2022/01/08 12:01:06;;;;;;;0.93;0.93;;;-0.70;99.90;;;;;;5073729;28;20213;-80
2022/01/08 12:03:39;;;;;;;1.27;1.17;;;-0.70;99.90;;;;;;5071541;28;20239;-79
2022/01/08 12:06:25;;;;;;;1.48;1.38;;;-0.70;99.90;;;;;;5072917;28;20668;-81
2022/01/08 12:09:07;;;;;;;0.70;0.70;;;-0.70;99.90;;;;;;5070964;28;20197;-79
2022/01/08 12:11:36;;;;;;;0.80;0.80;;;-0.70;99.90;;;;;;5070857;28;20299;-82
2022/01/08 12:14:10;;;;;;;0.70;0.70;;;-0.70;99.90;;;;;;5064793;28;20289;-80
2022/01/08 12:16:41;;;;;;;0.80;0.80;;;-0.70;99.90;;;;;;5062284;28;20240;-81
2022/01/08 12:19:09;;;;;;;1.77;1.67;;;-0.70;99.90;;;;;;5064937;28;20236;-80
2022/01/08 12:21:39;;;;;;;0.70;0.70;;;-0.60;99.90;;;;;;5063221;28;20204;-78
2022/01/08 12:24:27;;;;;;;0.77;0.77;;;-0.60;99.90;;;;;;5070777;28;20618;-79
2022/01/08 12:26:57;;;;;;;0.80;0.80;;;-0.60;99.90;;;;;;5070468;28;20216;-79
2022/01/08 12:29:36;;;;;;;0.60;0.60;;;-0.50;99.90;;;;;;5071019;28;20232;-81
2022/01/08 12:32:55;;;;;;;0.55;0.55;;;-0.50;99.90;;;;;;5061929;28;20572;-81
2022/01/08 12:54:13;;;;;;;0.80;0.80;;;-0.40;99.90;;;;;;4941789;29;20228;-81
2022/01/08 12:56:47;;;;;;;0.73;0.73;;;-0.40;99.90;;;;;;4938066;29;20267;-80
2022/01/08 12:59:13;;;;;;;0.60;0.60;;;-0.40;99.90;;;;;;4943529;29;20303;-81
2022/01/08 13:01:58;;;;;;;0.70;0.70;;;-0.30;99.90;;;;;;4938550;29;20685;-81
2022/01/08 13:04:27;;;;;;;0.60;0.60;;;-0.30;99.90;;;;;;4945228;29;20251;-79
2022/01/08 13:06:52;;;;;;;0.80;0.80;;;-0.30;99.90;;;;;;4923799;29;20306;-79
2022/01/08 13:09:18;;;;;;;0.70;0.70;;;-0.30;99.90;;;;;;4928642;29;20650;-80
2022/01/08 13:11:46;;;;;;;0.80;0.80;;;-0.20;99.90;;;;;;4944726;29;20212;-82
2022/01/08 13:14:21;;;;;;;2.05;1.50;;;-0.20;99.90;;;;;;4951952;28;20738;-80
2022/01/08 13:17:15;;;;;;;0.80;0.80;;;-0.20;99.90;;;;;;4949113;28;20211;-79
2022/01/08 13:19:41;;;;;;;1.02;1.02;;;-0.30;99.90;;;;;;4946719;28;20224;-80
2022/01/08 13:22:09;;;;;;;0.63;0.63;;;-0.30;99.90;;;;;;4950771;28;20275;-79
2022/01/08 13:24:48;;;;;;;0.68;0.68;;;-0.30;99.90;;;;;;4973362;28;20208;-80
2022/01/08 13:27:20;;;;;;;1.25;1.15;;;-0.30;99.90;;;;;;5037554;28;20208;-79
2022/01/08 13:29:46;;;;;;;0.65;0.65;;;-0.30;99.90;;;;;;5054637;28;20252;-79
2022/01/08 13:32:18;;;;;;;1.08;1.08;;;-0.30;99.90;;;;;;5067893;28;20201;-79
2022/01/08 13:34:46;;;;;;;0.50;0.50;;;-0.30;99.90;;;;;;5061466;28;20648;-79
2022/01/08 13:37:15;;;;;;;2.08;1.38;;;-0.30;99.90;;;;;;5070254;28;20205;-80
2022/01/08 13:39:49;;;;;;;0.90;0.90;;;-0.30;99.90;;;;;;5054362;28;20241;-81
2022/01/08 13:42:21;;;;;;;0.70;0.70;;;-0.30;99.90;;;;;;5069784;28;20192;-80
2022/01/08 13:44:57;;;;;;;0.75;0.75;;;-0.30;99.90;;;;;;5069514;28;20565;-80